Time;durP1;ratioP1;P1;durP2;ratioP2;P2;SDS_P1;SDS_P2;PMS_P1;PMS_P2;Temp;Humidity;BMP_temperature;BMP_pressure;BME280_temperature;BME280_humidity;BME280_pressure;Samples;Min_cycle;Max_cycle;Signal;HPM_P1;HPM_P2
2022/06/18 00:00:26;;;;;;;1999.90;999.90;;;;;;;18.45;100.00;95949.13;5115581;28;20210;-61
2022/06/18 00:02:51;;;;;;;1999.90;999.90;;;;;;;18.39;100.00;95940.59;5116050;28;20192;-61
2022/06/18 00:05:19;;;;;;;1999.90;999.90;;;;;;;18.34;100.00;95948.66;5097934;28;20273;-59
2022/06/18 00:07:51;;;;;;;1999.90;999.90;;;;;;;18.22;100.00;95941.88;5116192;28;20194;-59
2022/06/18 00:10:20;;;;;;;1999.90;999.90;;;;;;;17.97;100.00;95935.50;5097699;28;20180;-60
2022/06/18 00:15:37;;;;;;;1999.90;999.90;;;;;;;17.92;100.00;95913.94;5116699;28;20187;-60
2022/06/18 00:18:03;;;;;;;1999.90;999.90;;;;;;;17.86;100.00;95921.19;5098697;28;20179;-60
2022/06/18 00:20:34;;;;;;;1999.90;999.90;;;;;;;17.87;100.00;95914.44;5097857;28;20267;-53
2022/06/18 00:23:02;;;;;;;1999.90;999.90;;;;;;;17.99;100.00;95910.97;5098432;28;20184;-59
2022/06/18 00:25:38;;;;;;;1999.90;999.90;;;;;;;18.00;100.00;95909.75;5114491;28;20180;-60
2022/06/18 00:28:11;;;;;;;1999.90;999.90;;;;;;;17.94;100.00;95911.50;5097927;28;20270;-60
2022/06/18 00:30:36;;;;;;;1999.90;999.90;;;;;;;17.85;100.00;95911.38;5097889;28;20191;-60
2022/06/18 00:33:02;;;;;;;1999.90;999.90;;;;;;;17.83;100.00;95911.81;5098092;28;20188;-60
2022/06/18 00:35:27;;;;;;;1999.90;999.90;;;;;;;17.78;100.00;95912.31;5097657;28;20180;-60
2022/06/18 00:37:59;;;;;;;1999.90;999.90;;;;;;;17.87;100.00;95908.94;5097727;28;20278;-62
2022/06/18 00:40:40;;;;;;;1999.90;999.90;;;;;;;17.96;100.00;95906.31;5114583;28;20196;-63
2022/06/18 00:43:13;;;;;;;1999.90;999.90;;;;;;;17.97;100.00;95908.66;5097648;28;20184;-64
2022/06/18 00:45:39;;;;;;;1999.90;999.90;;;;;;;18.00;100.00;95907.78;5114538;28;20203;-62
2022/06/18 00:48:39;;;;;;;1999.90;999.90;;;;;;;18.02;100.00;95899.00;5097411;28;20179;-63
2022/06/18 00:51:31;;;;;;;1999.90;999.90;;;;;;;17.98;100.00;95910.19;5064068;28;20272;-62
2022/06/18 00:54:06;;;;;;;1999.90;999.90;;;;;;;17.94;100.00;95905.97;5114106;28;20188;-62
2022/06/18 00:56:38;;;;;;;1999.90;999.90;;;;;;;17.92;100.00;95905.63;5114665;28;20197;-55
2022/06/18 00:59:14;;;;;;;1999.90;999.90;;;;;;;17.90;100.00;95897.00;5114219;28;20191;-58
2022/06/18 01:01:45;;;;;;;1999.90;999.90;;;;;;;17.85;100.00;95900.31;5115002;28;20207;-58
2022/06/18 01:04:44;;;;;;;1999.90;999.90;;;;;;;17.88;100.00;95899.44;5114544;28;20184;-58
2022/06/18 01:07:18;;;;;;;1999.90;999.90;;;;;;;17.84;100.00;95899.53;5070207;28;20265;-58
2022/06/18 01:09:46;;;;;;;1999.90;999.90;;;;;;;17.80;100.00;95887.81;5114140;28;20194;-58
2022/06/18 01:12:12;;;;;;;1999.90;999.90;;;;;;;17.76;100.00;95886.34;5097683;28;20187;-58
2022/06/18 01:14:39;;;;;;;1999.90;999.90;;;;;;;17.76;100.00;95891.88;5097163;28;20184;-52
2022/06/18 01:17:06;;;;;;;1999.90;999.90;;;;;;;17.70;100.00;95885.34;5114527;28;20268;-57
2022/06/18 01:19:42;;;;;;;1999.90;999.90;;;;;;;17.61;100.00;95882.41;5113795;28;20179;-58
2022/06/18 01:22:29;;;;;;;1999.90;999.90;;;;;;;17.55;100.00;95881.44;5097338;28;20270;-58
2022/06/18 01:24:55;;;;;;;1999.90;999.90;;;;;;;17.56;100.00;95880.22;5113918;28;20223;-58
2022/06/18 01:27:21;;;;;;;1999.90;999.90;;;;;;;17.52;100.00;95882.28;5096996;28;20252;-58
2022/06/18 01:29:47;;;;;;;1999.90;999.90;;;;;;;17.50;100.00;95891.00;5096837;28;20192;-58
2022/06/18 01:32:15;;;;;;;1999.90;999.90;;;;;;;17.48;100.00;95884.38;5113475;28;20213;-61
2022/06/18 01:34:40;;;;;;;1999.90;999.90;;;;;;;17.47;100.00;95885.56;5096848;28;20218;-62
2022/06/18 01:37:07;;;;;;;1999.90;999.90;;;;;;;17.45;100.00;95888.75;5114142;28;20274;-63
2022/06/18 01:39:39;;;;;;;1999.90;999.90;;;;;;;17.41;100.00;95882.56;5097030;28;20203;-63
2022/06/18 01:42:11;;;;;;;1999.90;999.90;;;;;;;17.43;100.00;95884.88;5096401;28;20195;-64
2022/06/18 01:44:36;;;;;;;1999.90;999.90;;;;;;;17.39;100.00;95878.66;5114203;28;20278;-63
2022/06/18 01:47:07;;;;;;;1999.90;999.90;;;;;;;17.30;100.00;95876.50;5113756;28;20279;-64
2022/06/18 01:49:40;;;;;;;1999.90;999.90;;;;;;;17.34;100.00;95876.44;5113617;28;20191;-63
2022/06/18 01:52:08;;;;;;;1999.90;999.90;;;;;;;17.28;100.00;95867.91;5113787;28;20195;-61
2022/06/18 01:55:03;;;;;;;1999.90;999.90;;;;;;;17.25;100.00;95865.22;5114186;28;20188;-55
2022/06/18 01:57:36;;;;;;;1999.90;999.90;;;;;;;17.21;100.00;95850.75;5110942;28;20200;-54
2022/06/18 02:00:17;;;;;;;1999.90;999.90;;;;;;;17.20;100.00;95849.19;5096243;28;20187;-53
2022/06/18 02:02:44;;;;;;;1999.90;999.90;;;;;;;17.15;100.00;95841.44;5096355;28;20236;-51
2022/06/18 02:05:11;;;;;;;1999.90;999.90;;;;;;;17.11;100.00;95835.25;5112948;28;20215;-53
2022/06/18 02:07:37;;;;;;;1999.90;999.90;;;;;;;17.09;100.00;95838.44;5096309;28;20204;-53
2022/06/18 02:10:08;;;;;;;1999.90;999.90;;;;;;;17.03;100.00;95831.09;5096160;28;20275;-62
2022/06/18 02:12:38;;;;;;;1999.90;999.90;;;;;;;17.00;100.00;95826.47;5113345;28;20194;-52
2022/06/18 02:15:17;;;;;;;1999.90;999.90;;;;;;;16.97;100.00;95817.06;5096787;28;20639;-53
2022/06/18 02:17:44;;;;;;;1999.90;999.90;;;;;;;16.96;100.00;95814.72;5096781;28;20188;-53
2022/06/18 02:20:30;;;;;;;1999.90;999.90;;;;;;;16.94;100.00;95804.16;5113001;28;20191;-52
2022/06/18 02:22:57;;;;;;;1999.90;999.90;;;;;;;16.85;100.00;95806.72;5096613;28;20192;-54
2022/06/18 02:25:26;;;;;;;1999.90;999.90;;;;;;;16.80;100.00;95798.22;5113975;28;20187;-54
2022/06/18 02:27:56;;;;;;;1999.90;999.90;;;;;;;16.82;100.00;95801.31;5112976;28;20232;-54
2022/06/18 02:30:26;;;;;;;1999.90;999.90;;;;;;;16.78;100.00;95800.63;5095871;28;20191;-61
2022/06/18 02:33:16;;;;;;;1999.90;999.90;;;;;;;16.77;100.00;95802.63;5096173;28;20184;-61
2022/06/18 02:35:42;;;;;;;1999.90;999.90;;;;;;;16.76;100.00;95797.53;5113382;28;20198;-61
2022/06/18 02:38:18;;;;;;;1999.90;999.90;;;;;;;16.72;100.00;95794.09;5095953;28;20207;-61
2022/06/18 02:40:44;;;;;;;1999.90;999.90;;;;;;;16.66;100.00;95793.03;5112845;28;20264;-61
2022/06/18 02:43:10;;;;;;;1999.90;999.90;;;;;;;16.66;100.00;95787.53;5112821;28;20180;-61
2022/06/18 02:45:37;;;;;;;1999.90;999.90;;;;;;;16.62;100.00;95781.34;5112545;28;20215;-56
2022/06/18 02:48:03;;;;;;;1999.90;999.90;;;;;;;16.57;100.00;95779.84;5112810;28;20275;-59
2022/06/18 02:50:33;;;;;;;1999.90;999.90;;;;;;;16.50;100.00;95779.28;5112988;28;20223;-63
2022/06/18 02:53:02;;;;;;;1999.90;999.90;;;;;;;16.38;100.00;95764.94;5112572;28;20179;-63
2022/06/18 02:55:30;;;;;;;1999.90;999.90;;;;;;;16.32;100.00;95772.19;5095986;28;20198;-64
2022/06/18 02:58:00;;;;;;;1999.90;999.90;;;;;;;16.30;100.00;95760.81;5112377;28;20215;-65
2022/06/18 03:00:26;;;;;;;1999.90;999.90;;;;;;;16.27;100.00;95758.94;5095571;28;20198;-65
2022/06/18 03:02:52;;;;;;;1999.90;999.90;;;;;;;16.28;100.00;95760.47;5112319;28;20187;-64
2022/06/18 03:05:22;;;;;;;1999.90;999.90;;;;;;;16.29;100.00;95753.75;5095803;28;20190;-58
2022/06/18 03:07:47;;;;;;;1999.90;999.90;;;;;;;16.25;100.00;95764.06;5095499;28;20176;-60
2022/06/18 03:12:57;;;;;;;1999.90;999.90;;;;;;;16.27;100.00;95771.91;5114045;28;20210;-60
2022/06/18 03:15:24;;;;;;;1999.90;999.90;;;;;;;16.31;100.00;95762.38;5095386;28;20179;-61
2022/06/18 03:17:50;;;;;;;1999.90;999.90;;;;;;;16.34;100.00;95769.78;5098433;28;20194;-60
2022/06/18 03:20:18;;;;;;;1999.90;999.90;;;;;;;16.30;100.00;95766.34;5115960;28;20184;-60
2022/06/18 03:22:43;;;;;;;1999.90;999.90;;;;;;;16.29;100.00;95764.75;5098583;28;20184;-56
2022/06/18 03:25:09;;;;;;;1999.90;999.90;;;;;;;16.34;100.00;95758.75;5115747;28;20187;-56
2022/06/18 03:27:34;;;;;;;1999.90;999.90;;;;;;;16.37;100.00;95754.34;5115386;28;20219;-61
2022/06/18 03:29:59;;;;;;;1999.90;999.90;;;;;;;16.42;100.00;95758.59;5116010;28;20245;-61
2022/06/18 03:32:25;;;;;;;1999.90;999.90;;;;;;;16.46;100.00;95770.31;5115613;28;20280;-61
2022/06/18 03:34:50;;;;;;;1999.90;999.90;;;;;;;16.50;100.00;95766.25;5115749;28;20194;-60
2022/06/18 03:37:15;;;;;;;1999.90;999.90;;;;;;;16.57;100.00;95765.31;5115518;28;20190;-61
2022/06/18 03:39:41;;;;;;;1999.90;999.90;;;;;;;16.66;100.00;95776.50;5098578;28;20207;-60
2022/06/18 03:42:06;;;;;;;1999.90;999.90;;;;;;;16.77;100.00;95771.47;5115632;28;20182;-61
2022/06/18 03:44:32;;;;;;;1999.90;999.90;;;;;;;16.89;100.00;95779.81;5115481;28;20188;-52
2022/06/18 03:46:59;;;;;;;1999.90;999.90;;;;;;;17.05;100.00;95781.78;5098182;28;20203;-53
2022/06/18 03:49:30;;;;;;;1999.90;999.90;;;;;;;17.04;100.00;95785.75;5115645;28;20183;-54
2022/06/18 03:51:57;;;;;;;1999.90;999.90;;;;;;;17.11;100.00;95791.09;5115889;28;20195;-52
2022/06/18 03:54:24;;;;;;;1999.90;999.90;;;;;;;17.14;100.00;95798.47;5115187;28;20175;-52
2022/06/18 03:56:50;;;;;;;1999.90;999.90;;;;;;;17.26;100.00;95795.78;5098228;28;20280;-52
2022/06/18 03:59:15;;;;;;;1999.90;999.90;;;;;;;17.29;100.00;95794.91;5116112;28;20239;-60
2022/06/18 04:01:41;;;;;;;1999.90;999.90;;;;;;;17.34;100.00;95799.13;5098336;28;20180;-58
2022/06/18 04:04:08;;;;;;;1999.90;999.90;;;;;;;17.36;100.00;95797.47;5098367;28;20180;-64
2022/06/18 04:06:34;;;;;;;1999.90;999.90;;;;;;;17.59;100.00;95811.03;5098020;28;20207;-64
2022/06/18 04:09:00;;;;;;;1999.90;999.90;;;;;;;17.86;100.00;95810.66;5115421;28;20243;-64
2022/06/18 04:11:25;;;;;;;1999.90;999.90;;;;;;;18.12;100.00;95815.00;5098198;28;20283;-65
2022/06/18 04:13:50;;;;;;;1999.90;999.90;;;;;;;18.51;100.00;95825.66;5098167;28;20203;-64
2022/06/18 04:16:16;;;;;;;1999.90;999.90;;;;;;;18.79;100.00;95836.56;5097948;28;20179;-65
2022/06/18 04:18:43;;;;;;;1999.90;999.90;;;;;;;18.98;100.00;95834.78;5098002;28;20183;-66
2022/06/18 04:21:09;;;;;;;1999.90;999.90;;;;;;;19.33;100.00;95841.88;5114926;28;20176;-61
2022/06/18 04:23:35;;;;;;;1999.90;999.90;;;;;;;19.67;100.00;95843.88;5098134;28;20271;-60
2022/06/18 04:26:00;;;;;;;1999.90;999.90;;;;;;;19.93;100.00;95850.81;5114657;28;20267;-60
2022/06/18 04:28:27;;;;;;;1999.90;999.90;;;;;;;20.07;100.00;95862.16;5114279;28;20192;-60
2022/06/18 04:30:52;;;;;;;1999.90;999.90;;;;;;;20.35;100.00;95866.66;5114459;28;20180;-60
2022/06/18 04:33:18;;;;;;;1999.90;999.90;;;;;;;20.78;100.00;95858.22;5097774;28;20190;-60
2022/06/18 04:35:44;;;;;;;1999.90;999.90;;;;;;;20.95;99.52;95867.88;5115148;28;20201;-63
2022/06/18 04:38:11;;;;;;;1999.90;999.90;;;;;;;21.30;97.66;95868.38;5097525;28;20272;-63
2022/06/18 04:40:37;;;;;;;1999.90;999.90;;;;;;;21.82;94.40;95882.03;5114405;28;20182;-60
2022/06/18 04:43:09;;;;;;;1999.90;999.90;;;;;;;22.48;89.32;95890.16;5114883;28;20282;-60
2022/06/18 04:45:35;;;;;;;1999.90;999.90;;;;;;;22.90;86.35;95892.94;5097501;28;20175;-60
2022/06/18 04:48:02;;;;;;;1999.90;999.90;;;;;;;23.13;83.50;95891.44;5097370;28;20194;-60
2022/06/18 04:50:30;;;;;;;1999.90;999.90;;;;;;;23.38;82.03;95897.34;5097469;28;20173;-60
2022/06/18 04:52:56;;;;;;;1999.90;999.90;;;;;;;23.75;80.32;95906.25;5097186;28;20187;-60
2022/06/18 04:55:22;;;;;;;1999.90;999.90;;;;;;;24.00;77.79;95905.78;5097363;28;20187;-64
2022/06/18 04:57:47;;;;;;;1999.90;999.90;;;;;;;24.24;75.69;95906.47;5097742;28;20312;-62
2022/06/18 05:00:14;;;;;;;1999.90;999.90;;;;;;;24.29;75.90;95906.56;5097002;28;20184;-62
2022/06/18 05:02:39;;;;;;;1999.90;999.90;;;;;;;24.59;74.32;95899.00;5115232;28;20183;-62
2022/06/18 05:05:11;;;;;;;1999.90;999.90;;;;;;;24.94;72.47;95906.19;5114598;28;20180;-62
2022/06/18 05:07:36;;;;;;;1999.90;999.90;;;;;;;24.89;72.22;95908.91;5096989;28;20203;-62
2022/06/18 05:10:02;;;;;;;1999.90;999.90;;;;;;;25.05;71.77;95911.19;5097256;28;20180;-61
2022/06/18 05:12:27;;;;;;;1999.90;999.90;;;;;;;25.29;70.44;95909.03;5097151;28;20270;-62
2022/06/18 05:14:53;;;;;;;1999.90;999.90;;;;;;;25.27;70.81;95900.34;5114143;28;20180;-60
2022/06/18 05:17:23;;;;;;;1999.90;999.90;;;;;;;25.49;69.70;95903.47;5113647;28;20184;-58
2022/06/18 05:19:49;;;;;;;1999.90;999.90;;;;;;;25.87;67.96;95908.81;5114618;28;20186;-58
2022/06/18 05:22:14;;;;;;;1999.90;999.90;;;;;;;26.27;66.46;95903.19;5097247;28;20187;-58
2022/06/18 05:24:40;;;;;;;1999.90;999.90;;;;;;;26.70;65.37;95915.38;5113977;28;20278;-55
2022/06/18 05:27:06;;;;;;;1999.90;999.90;;;;;;;26.98;63.78;95911.53;5097104;28;20215;-53
2022/06/18 05:29:32;;;;;;;1999.90;999.90;;;;;;;27.51;61.36;95914.47;5114260;28;20262;-53
2022/06/18 05:31:57;;;;;;;1999.90;999.90;;;;;;;28.03;58.44;95915.78;5096564;28;20340;-61
2022/06/18 05:34:23;;;;;;;1999.90;999.90;;;;;;;28.18;57.25;95916.34;5096676;28;20225;-63
2022/06/18 05:36:49;;;;;;;1999.90;999.90;;;;;;;28.19;57.15;95906.63;5113505;28;20187;-63
2022/06/18 05:39:18;;;;;;;1999.90;999.90;;;;;;;27.99;57.67;95909.63;5095954;28;20234;-60
2022/06/18 05:41:44;;;;;;;1999.90;999.90;;;;;;;28.47;54.95;95914.41;5112985;28;20251;-64
2022/06/18 05:44:09;;;;;;;1999.90;999.90;;;;;;;29.08;53.72;95913.22;5096409;28;20266;-63
2022/06/18 05:46:35;;;;;;;1999.90;999.90;;;;;;;29.11;53.26;95917.03;5113395;28;20203;-63
2022/06/18 05:49:01;;;;;;;1999.90;999.90;;;;;;;29.72;51.22;95909.31;5096987;28;20191;-66
2022/06/18 05:51:26;;;;;;;1999.90;999.90;;;;;;;30.01;50.12;95919.97;5113496;28;20186;-53
2022/06/18 05:53:52;;;;;;;1999.90;999.90;;;;;;;30.28;48.66;95916.28;5096339;28;20179;-65
2022/06/18 05:56:17;;;;;;;1999.90;999.90;;;;;;;30.40;48.15;95912.09;5113336;28;20270;-67
2022/06/18 05:58:43;;;;;;;1999.90;999.90;;;;;;;30.69;47.69;95917.06;5113306;28;20179;-67
2022/06/18 06:01:08;;;;;;;1999.90;999.90;;;;;;;30.62;48.00;95917.59;5113274;28;20184;-67
2022/06/18 06:03:34;;;;;;;1999.90;999.90;;;;;;;31.49;45.32;95915.41;5096671;28;20189;-66
2022/06/18 06:06:00;;;;;;;1999.90;999.90;;;;;;;31.93;43.73;95919.88;5112955;28;20239;-65
2022/06/18 06:08:26;;;;;;;1999.90;999.90;;;;;;;32.39;42.65;95905.44;5096616;28;20191;-66
2022/06/18 06:13:36;;;;;;;1999.90;999.90;;;;;;;32.56;42.13;95906.72;5114641;28;20250;-65
2022/06/18 06:16:01;;;;;;;1999.90;999.90;;;;;;;32.95;40.94;95912.59;5113178;28;20195;-65
2022/06/18 06:18:28;;;;;;;1999.90;999.90;;;;;;;33.41;39.50;95909.31;5096668;28;20219;-65
2022/06/18 06:20:56;;;;;;;1999.90;999.90;;;;;;;33.33;39.25;95919.75;5095703;28;20656;-65
2022/06/18 06:23:21;;;;;;;1999.90;999.90;;;;;;;33.91;38.01;95904.78;5096530;28;20216;-65
2022/06/18 06:25:49;;;;;;;1999.90;999.90;;;;;;;34.26;37.15;95913.59;5112786;28;20200;-69
2022/06/18 06:28:21;;;;;;;1999.90;999.90;;;;;;;34.16;37.14;95908.94;5096056;28;20183;-66
2022/06/18 06:30:47;;;;;;;1999.90;999.90;;;;;;;34.89;35.58;95909.69;5113000;28;20188;-54
2022/06/18 06:33:12;;;;;;;1999.90;999.90;;;;;;;35.45;34.60;95915.56;5113151;28;20176;-55
2022/06/18 06:35:45;;;;;;;1999.90;999.90;;;;;;;35.08;34.11;95913.09;5095675;28;20184;-52
2022/06/18 06:38:11;;;;;;;1999.90;999.90;;;;;;;35.30;33.67;95918.28;5095691;28;20207;-52
2022/06/18 06:40:36;;;;;;;1999.90;999.90;;;;;;;36.03;32.86;95910.91;5095895;28;20176;-53
2022/06/18 06:43:03;;;;;;;1999.90;999.90;;;;;;;35.96;32.73;95913.69;5095493;28;20188;-56
2022/06/18 06:45:32;;;;;;;1999.90;999.90;;;;;;;36.45;31.26;95914.41;5113375;28;20183;-63
2022/06/18 06:47:58;;;;;;;1999.90;999.90;;;;;;;36.95;31.17;95918.59;5095810;28;20180;-67
2022/06/18 06:50:26;;;;;;;1999.90;999.90;;;;;;;36.78;31.26;95909.78;5112486;28;20187;-66
2022/06/18 06:52:52;;;;;;;1999.90;999.90;;;;;;;37.43;30.76;95906.88;5099399;28;20238;-66
2022/06/18 06:58:21;;;;;;;1999.90;999.90;;;;;;;37.68;29.58;95907.88;5117512;28;20186;-67
2022/06/18 07:00:56;;;;;;;1999.90;999.90;;;;;;;37.59;29.52;95897.00;5098693;28;20188;-66
2022/06/18 07:03:25;;;;;;;1999.90;999.90;;;;;;;37.32;29.53;95897.97;5099644;28;20236;-63
2022/06/18 07:05:51;;;;;;;1999.90;999.90;;;;;;;37.30;30.10;95901.38;5098765;28;20203;-57
2022/06/18 07:08:16;;;;;;;1999.90;999.90;;;;;;;38.23;28.54;95897.34;5115646;28;20187;-57
2022/06/18 07:10:44;;;;;;;1999.90;999.90;;;;;;;38.17;28.84;95896.81;5116836;28;20198;-57
2022/06/18 07:13:10;;;;;;;1999.90;999.90;;;;;;;38.18;28.03;95897.53;5116267;28;20191;-57
2022/06/18 07:15:36;;;;;;;1999.90;999.90;;;;;;;39.37;27.23;95892.66;5115883;28;20176;-55
2022/06/18 07:18:03;;;;;;;1999.90;999.90;;;;;;;39.49;26.07;95887.97;5099230;28;20270;-56
2022/06/18 07:20:29;;;;;;;1999.90;999.90;;;;;;;39.57;25.76;95882.19;5115849;28;20208;-56
2022/06/18 07:22:56;;;;;;;1999.90;999.90;;;;;;;38.54;26.59;95880.88;5098950;28;20180;-68
2022/06/18 07:25:21;;;;;;;1999.90;999.90;;;;;;;38.93;26.72;95883.75;5115511;28;20225;-61
2022/06/18 07:27:47;;;;;;;1999.90;999.90;;;;;;;39.33;26.30;95875.84;5098502;28;20289;-60
2022/06/18 07:30:12;;;;;;;1999.90;999.90;;;;;;;40.44;25.52;95873.88;5116243;28;20178;-61
2022/06/18 07:32:44;;;;;;;1999.90;999.90;;;;;;;40.62;25.02;95878.28;5098601;28;20182;-61
2022/06/18 07:35:17;;;;;;;1999.90;999.90;;;;;;;40.45;25.44;95872.56;5098492;28;20225;-62
2022/06/18 07:37:43;;;;;;;1999.90;999.90;;;;;;;40.06;25.69;95877.19;5115387;28;20190;-61
2022/06/18 07:40:09;;;;;;;1999.90;999.90;;;;;;;39.96;26.82;95866.97;5115282;28;20176;-60
2022/06/18 07:42:35;;;;;;;1999.90;999.90;;;;;;;40.41;25.71;95867.25;5115399;28;20236;-57
2022/06/18 07:45:00;;;;;;;1999.90;999.90;;;;;;;40.72;24.32;95861.91;5115382;28;20187;-56
2022/06/18 07:47:25;;;;;;;1999.90;999.90;;;;;;;40.70;24.88;95858.88;5098448;28;20212;-56
2022/06/18 07:49:51;;;;;;;1999.90;999.90;;;;;;;41.15;24.82;95855.41;5115430;28;20182;-53
2022/06/18 07:52:16;;;;;;;1999.90;999.90;;;;;;;41.43;24.15;95849.00;5115322;28;20320;-58
2022/06/18 07:54:43;;;;;;;1999.90;999.90;;;;;;;40.90;25.05;95844.09;5116370;28;20225;-53
2022/06/18 07:57:09;;;;;;;1999.90;999.90;;;;;;;40.48;24.69;95845.56;5115850;28;20172;-53
2022/06/18 07:59:35;;;;;;;1999.90;999.90;;;;;;;40.00;25.03;95850.13;5098640;28;20198;-62
2022/06/18 08:02:00;;;;;;;1999.90;999.90;;;;;;;40.06;25.35;95848.53;5115700;28;20178;-54
2022/06/18 08:04:26;;;;;;;1999.90;999.90;;;;;;;39.71;26.40;95843.31;5097173;28;20322;-54
2022/06/18 08:06:52;;;;;;;1999.90;999.90;;;;;;;40.18;25.86;95837.31;5115052;28;20231;-53
2022/06/18 08:09:18;;;;;;;1999.90;999.90;;;;;;;40.08;25.36;95851.56;5114836;28;20229;-52
2022/06/18 08:11:43;;;;;;;1999.90;999.90;;;;;;;39.85;24.48;95845.31;5114869;28;20180;-56
2022/06/18 08:14:09;;;;;;;1999.90;999.90;;;;;;;40.28;24.79;95846.78;5114671;28;20179;-54
2022/06/18 08:16:35;;;;;;;1999.90;999.90;;;;;;;41.29;25.00;95833.56;5097848;28;20176;-57
2022/06/18 08:19:01;;;;;;;1999.90;999.90;;;;;;;41.92;22.80;95837.09;5115800;28;20187;-56
2022/06/18 08:21:40;;;;;;;1999.90;999.90;;;;;;;41.82;22.80;95839.16;5114602;28;20188;-63
2022/06/18 08:24:10;;;;;;;1999.90;999.90;;;;;;;41.77;23.44;95831.63;5114694;28;20195;-62
2022/06/18 08:26:37;;;;;;;1999.90;999.90;;;;;;;41.55;23.04;95832.78;5097595;28;20238;-61
2022/06/18 08:29:05;;;;;;;1999.90;999.90;;;;;;;40.68;23.31;95833.69;5114442;28;20284;-61
2022/06/18 08:31:31;;;;;;;1999.90;999.90;;;;;;;41.36;23.97;95830.56;5097500;28;20186;-60
2022/06/18 08:33:57;;;;;;;1999.90;999.90;;;;;;;42.13;23.37;95820.03;5114382;28;20184;-59
2022/06/18 08:36:23;;;;;;;1999.90;999.90;;;;;;;42.41;22.17;95825.03;5114323;28;20204;-63
2022/06/18 08:38:50;;;;;;;1999.90;999.90;;;;;;;41.71;21.85;95834.00;5114070;28;20203;-61
2022/06/18 08:41:27;;;;;;;1999.90;999.90;;;;;;;41.84;22.26;95824.97;5097381;28;20184;-62
2022/06/18 08:44:24;;;;;;;1999.90;999.90;;;;;;;42.23;22.25;95820.78;5114512;28;20175;-61
2022/06/18 08:47:06;;;;;;;1999.90;999.90;;;;;;;42.42;22.24;95826.56;5114288;28;20207;-61
2022/06/18 08:49:34;;;;;;;1999.90;999.90;;;;;;;41.28;21.52;95829.16;5097227;28;20184;-60
2022/06/18 08:52:30;;;;;;;1999.90;999.90;;;;;;;40.98;21.87;95818.91;5114320;28;20188;-60
2022/06/18 08:55:10;;;;;;;1999.90;999.90;;;;;;;41.94;19.75;95822.88;5115345;28;20187;-57
2022/06/18 08:58:02;;;;;;;1999.90;999.90;;;;;;;42.20;19.13;95824.13;5114232;28;20184;-56
2022/06/18 09:00:38;;;;;;;1999.90;999.90;;;;;;;42.13;19.51;95816.41;5097014;28;20237;-58
2022/06/18 09:03:45;;;;;;;1999.90;999.90;;;;;;;42.28;19.97;95822.63;5114417;28;20217;-59
2022/06/18 09:06:58;;;;;;;1999.90;999.90;;;;;;;41.13;20.80;95820.81;5086221;28;20215;-59
2022/06/18 09:09:51;;;;;;;1999.90;999.90;;;;;;;40.99;19.73;95816.78;5074172;28;20202;-58
2022/06/18 09:12:29;;;;;;;1999.90;999.90;;;;;;;40.68;20.68;95821.47;5097132;28;20275;-59
2022/06/18 09:15:04;;;;;;;1999.90;999.90;;;;;;;40.97;20.54;95813.75;5097132;28;20184;-68
2022/06/18 09:17:41;;;;;;;1999.90;999.90;;;;;;;40.72;21.27;95813.19;5114077;28;20213;-68
2022/06/18 09:20:29;;;;;;;1999.90;999.90;;;;;;;40.30;20.05;95815.44;5114318;28;20266;-68
2022/06/18 09:23:00;;;;;;;1999.90;999.90;;;;;;;38.61;21.51;95812.28;5114119;28;20183;-67
2022/06/18 09:25:31;;;;;;;1999.90;999.90;;;;;;;38.92;22.00;95816.50;5096591;28;20175;-68
2022/06/18 09:28:03;;;;;;;1999.90;999.90;;;;;;;38.75;22.42;95807.81;5096696;28;20219;-66
2022/06/18 09:30:35;;;;;;;1999.90;999.90;;;;;;;38.79;22.33;95805.31;5096377;28;20179;-63
2022/06/18 09:33:16;;;;;;;1999.90;999.90;;;;;;;39.71;21.69;95806.88;5097160;28;20180;-63
2022/06/18 09:35:54;;;;;;;1999.90;999.90;;;;;;;39.93;21.70;95811.63;5113454;28;20176;-62
2022/06/18 09:38:35;;;;;;;1999.90;999.90;;;;;;;39.63;21.91;95811.16;5096239;28;20230;-63
2022/06/18 09:41:05;;;;;;;1999.90;999.90;;;;;;;39.81;21.45;95807.75;5113344;28;20187;-62
2022/06/18 09:43:42;;;;;;;1999.90;999.90;;;;;;;40.05;21.75;95801.19;5113272;28;20175;-61
2022/06/18 09:46:40;;;;;;;1999.90;999.90;;;;;;;40.26;20.98;95801.53;5113151;28;20263;-62
2022/06/18 09:49:05;;;;;;;1999.90;999.90;;;;;;;41.14;21.39;95805.13;5107535;28;20275;-63
2022/06/18 09:51:42;;;;;;;1999.90;999.90;;;;;;;42.22;20.77;95802.03;5096184;28;20202;-64
2022/06/18 09:54:10;;;;;;;1999.90;999.90;;;;;;;41.65;19.69;95799.84;5113392;28;20223;-62
2022/06/18 09:56:44;;;;;;;1999.90;999.90;;;;;;;41.06;19.65;95795.84;5112995;28;20279;-62
2022/06/18 09:59:35;;;;;;;1999.90;999.90;;;;;;;41.46;20.08;95796.19;5096067;28;20179;-62
2022/06/18 10:02:02;;;;;;;1999.90;999.90;;;;;;;41.70;20.06;95786.56;5103974;28;20241;-65
2022/06/18 10:07:18;;;;;;;1999.90;999.90;;;;;;;41.33;20.08;95787.97;5114040;28;20210;-69
2022/06/18 10:09:47;;;;;;;1999.90;999.90;;;;;;;41.92;19.94;95784.63;5096036;28;20213;-62
2022/06/18 10:12:32;;;;;;;1999.90;999.90;;;;;;;42.13;20.52;95788.44;5095915;28;20175;-63
2022/06/18 10:15:03;;;;;;;1999.90;999.90;;;;;;;41.92;19.78;95782.53;5113349;28;20227;-63
2022/06/18 10:17:35;;;;;;;1999.90;999.90;;;;;;;41.28;21.02;95774.66;5096422;28;20179;-61
2022/06/18 10:20:06;;;;;;;1999.90;999.90;;;;;;;41.73;20.21;95780.34;5112848;28;20184;-60
2022/06/18 10:22:56;;;;;;;1999.90;999.90;;;;;;;42.10;20.08;95766.66;5113044;28;20183;-61
2022/06/18 10:25:33;;;;;;;1999.90;999.90;;;;;;;41.46;20.14;95767.47;5112825;28;20184;-59
2022/06/18 10:28:25;;;;;;;1999.90;999.90;;;;;;;41.80;20.47;95770.13;5116262;28;20229;-48
2022/06/18 10:30:58;;;;;;;1999.90;999.90;;;;;;;42.07;20.83;95756.38;5099712;28;20198;-50
2022/06/18 10:33:33;;;;;;;1999.90;999.90;;;;;;;41.37;20.77;95765.31;5116538;28;20218;-52
2022/06/18 10:36:15;;;;;;;1999.90;999.90;;;;;;;41.49;20.97;95761.31;5099457;28;20213;-50
2022/06/18 10:38:58;;;;;;;1999.90;999.90;;;;;;;42.31;20.40;95749.59;5099245;28;20211;-52
2022/06/18 10:41:43;;;;;;;1999.90;999.90;;;;;;;42.48;20.65;95754.38;5116500;28;20183;-54
2022/06/18 10:44:14;;;;;;;1999.90;999.90;;;;;;;42.29;20.14;95760.91;5116337;28;20279;-70
2022/06/18 10:46:40;;;;;;;1999.90;999.90;;;;;;;42.41;20.43;95756.06;5116415;28;20237;-67
2022/06/18 10:49:06;;;;;;;1999.90;999.90;;;;;;;42.57;19.53;95745.75;5099149;28;20183;-67
2022/06/18 10:51:47;;;;;;;1999.90;999.90;;;;;;;41.81;20.11;95754.38;5116257;28;20199;-69
2022/06/18 10:54:13;;;;;;;1999.90;999.90;;;;;;;41.13;20.73;95749.09;5116491;28;20183;-68
2022/06/18 10:56:53;;;;;;;1999.90;999.90;;;;;;;41.01;20.27;95745.25;5117056;28;20239;-68
2022/06/18 10:59:37;;;;;;;1999.90;999.90;;;;;;;40.25;20.52;95751.31;5116104;28;20183;-66
2022/06/18 11:02:09;;;;;;;1999.90;999.90;;;;;;;39.93;21.05;95742.16;5115916;28;20194;-58
2022/06/18 11:04:36;;;;;;;1999.90;999.90;;;;;;;38.68;21.71;95742.91;5115833;28;20179;-58
2022/06/18 11:07:07;;;;;;;1999.90;999.90;;;;;;;39.32;21.52;95746.97;5116584;28;20249;-65
2022/06/18 11:09:35;;;;;;;1999.90;999.90;;;;;;;38.79;21.63;95736.72;5098573;28;20249;-64
2022/06/18 11:12:06;;;;;;;1999.90;999.90;;;;;;;39.20;22.02;95736.03;5098822;28;20211;-64
2022/06/18 11:14:42;;;;;;;1999.90;999.90;;;;;;;39.70;21.84;95730.97;5115667;28;20184;-64
2022/06/18 11:17:25;;;;;;;1999.90;999.90;;;;;;;40.36;21.76;95736.47;5115893;28;20207;-63
2022/06/18 11:19:51;;;;;;;1999.90;999.90;;;;;;;40.83;21.32;95729.47;5116061;28;20179;-59